sensor_id;sensor_type;location;lat;lon;timestamp;pressure;altitude;pressure_sealevel;temperature;humidity
55044;BME280;54902;50.420;18.854;2023-09-30T00:00:21;101654.76;;;18.20;58.43
55044;BME280;54902;50.420;18.854;2023-09-30T00:00:52;101651.98;;;18.20;58.44
55044;BME280;54902;50.420;18.854;2023-09-30T00:01:23;101658.58;;;18.19;58.43
55044;BME280;54902;50.420;18.854;2023-09-30T00:01:54;101653.04;;;18.19;58.43
55044;BME280;54902;50.420;18.854;2023-09-30T00:02:26;101658.58;;;18.19;58.45
55044;BME280;54902;50.420;18.854;2023-09-30T00:02:57;101661.34;;;18.19;58.45
55044;BME280;54902;50.420;18.854;2023-09-30T00:03:28;101648.52;;;18.18;58.47
55044;BME280;54902;50.420;18.854;2023-09-30T00:03:59;101657.68;;;18.19;58.48
55044;BME280;54902;50.420;18.854;2023-09-30T00:04:33;101656.82;;;18.18;58.48
55044;BME280;54902;50.420;18.854;2023-09-30T00:05:04;101659.59;;;18.18;58.48
55044;BME280;54902;50.420;18.854;2023-09-30T00:05:35;101649.54;;;18.17;58.47
55044;BME280;54902;50.420;18.854;2023-09-30T00:06:06;101654.22;;;18.17;58.49
55044;BME280;54902;50.420;18.854;2023-09-30T00:06:37;101655.07;;;18.17;58.49
55044;BME280;54902;50.420;18.854;2023-09-30T00:07:08;101650.55;;;18.16;58.52
55044;BME280;54902;50.420;18.854;2023-09-30T00:07:40;101655.20;;;18.16;58.53
55044;BME280;54902;50.420;18.854;2023-09-30T00:08:11;101654.22;;;18.17;58.51
55044;BME280;54902;50.420;18.854;2023-09-30T00:08:42;101661.63;;;18.16;58.52
55044;BME280;54902;50.420;18.854;2023-09-30T00:09:14;101654.34;;;18.15;58.51
55044;BME280;54902;50.420;18.854;2023-09-30T00:09:45;101651.58;;;18.15;58.51
55044;BME280;54902;50.420;18.854;2023-09-30T00:10:16;101658.86;;;18.16;58.53
55044;BME280;54902;50.420;18.854;2023-09-30T00:10:47;101654.34;;;18.15;58.52
55044;BME280;54902;50.420;18.854;2023-09-30T00:11:18;101646.04;;;18.15;58.55
55044;BME280;54902;50.420;18.854;2023-09-30T00:11:49;101652.59;;;18.14;58.53
55044;BME280;54902;50.420;18.854;2023-09-30T00:12:20;101652.59;;;18.14;58.54
55044;BME280;54902;50.420;18.854;2023-09-30T00:12:51;101641.52;;;18.14;58.54
55044;BME280;54902;50.420;18.854;2023-09-30T00:13:22;101654.47;;;18.14;58.55
55044;BME280;54902;50.420;18.854;2023-09-30T00:13:54;101651.70;;;18.14;58.57
55044;BME280;54902;50.420;18.854;2023-09-30T00:14:25;101645.31;;;18.13;58.59
55044;BME280;54902;50.420;18.854;2023-09-30T00:14:56;101645.31;;;18.13;58.58
55044;BME280;54902;50.420;18.854;2023-09-30T00:15:27;101652.59;;;18.14;58.61
55044;BME280;54902;50.420;18.854;2023-09-30T00:15:58;101650.85;;;18.13;58.61
55044;BME280;54902;50.420;18.854;2023-09-30T00:16:29;101649.99;;;18.13;58.61
55044;BME280;54902;50.420;18.854;2023-09-30T00:17:01;101649.09;;;18.12;58.60
55044;BME280;54902;50.420;18.854;2023-09-30T00:17:32;101654.62;;;18.12;58.60
55044;BME280;54902;50.420;18.854;2023-09-30T00:18:03;101638.03;;;18.12;58.60
55044;BME280;54902;50.420;18.854;2023-09-30T00:18:35;101649.09;;;18.12;58.62
55044;BME280;54902;50.420;18.854;2023-09-30T00:19:06;101644.63;;;18.11;58.60
55044;BME280;54902;50.420;18.854;2023-09-30T00:19:37;101647.38;;;18.11;58.60
55044;BME280;54902;50.420;18.854;2023-09-30T00:20:09;101645.48;;;18.12;58.60
55044;BME280;54902;50.420;18.854;2023-09-30T00:20:40;101647.38;;;18.11;58.59
55044;BME280;54902;50.420;18.854;2023-09-30T00:21:11;101642.70;;;18.12;58.59
55044;BME280;54902;50.420;18.854;2023-09-30T00:21:42;101645.63;;;18.10;58.61
55044;BME280;54902;50.420;18.854;2023-09-30T00:22:13;101640.10;;;18.10;58.62
55044;BME280;54902;50.420;18.854;2023-09-30T00:22:44;101651.17;;;18.10;58.65
55044;BME280;54902;50.420;18.854;2023-09-30T00:23:15;101645.63;;;18.10;58.64
55044;BME280;54902;50.420;18.854;2023-09-30T00:23:46;101635.42;;;18.11;58.63
55044;BME280;54902;50.420;18.854;2023-09-30T00:24:17;101642.13;;;18.08;58.65
55044;BME280;54902;50.420;18.854;2023-09-30T00:24:48;101634.57;;;18.10;58.66
55044;BME280;54902;50.420;18.854;2023-09-30T00:25:19;101642.86;;;18.10;58.65
55044;BME280;54902;50.420;18.854;2023-09-30T00:25:51;101640.27;;;18.09;58.66
55044;BME280;54902;50.420;18.854;2023-09-30T00:26:22;101646.66;;;18.09;58.65
55044;BME280;54902;50.420;18.854;2023-09-30T00:26:53;101633.68;;;18.10;58.66
55044;BME280;54902;50.420;18.854;2023-09-30T00:27:24;101638.35;;;18.09;58.68
55044;BME280;54902;50.420;18.854;2023-09-30T00:27:55;101629.20;;;18.09;58.68
55044;BME280;54902;50.420;18.854;2023-09-30T00:28:26;101632.82;;;18.09;58.68
55044;BME280;54902;50.420;18.854;2023-09-30T00:28:58;101641.12;;;18.09;58.72
55044;BME280;54902;50.420;18.854;2023-09-30T00:29:29;101629.20;;;18.09;58.68
55044;BME280;54902;50.420;18.854;2023-09-30T00:30:00;101633.83;;;18.08;58.68
55044;BME280;54902;50.420;18.854;2023-09-30T00:30:31;101630.21;;;18.08;58.68
55044;BME280;54902;50.420;18.854;2023-09-30T00:31:07;101627.30;;;18.09;58.69
55044;BME280;54902;50.420;18.854;2023-09-30T00:31:40;101632.82;;;18.09;58.69
55044;BME280;54902;50.420;18.854;2023-09-30T00:32:11;101623.66;;;18.09;58.68
55044;BME280;54902;50.420;18.854;2023-09-30T00:32:43;101631.07;;;18.08;58.71
55044;BME280;54902;50.420;18.854;2023-09-30T00:33:14;101625.53;;;18.08;58.72
55044;BME280;54902;50.420;18.854;2023-09-30T00:33:44;101631.07;;;18.08;58.71
55044;BME280;54902;50.420;18.854;2023-09-30T00:34:15;101636.60;;;18.08;58.72
55044;BME280;54902;50.420;18.854;2023-09-30T00:34:46;101630.21;;;18.08;58.72
55044;BME280;54902;50.420;18.854;2023-09-30T00:35:17;101634.89;;;18.08;58.72
55044;BME280;54902;50.420;18.854;2023-09-30T00:35:48;101630.05;;;18.09;58.70
55044;BME280;54902;50.420;18.854;2023-09-30T00:36:19;101629.20;;;18.09;58.74
55044;BME280;54902;50.420;18.854;2023-09-30T00:36:50;101631.07;;;18.08;58.75
55044;BME280;54902;50.420;18.854;2023-09-30T00:37:21;101626.43;;;18.09;58.76
55044;BME280;54902;50.420;18.854;2023-09-30T00:37:52;101623.82;;;18.08;58.76
55044;BME280;54902;50.420;18.854;2023-09-30T00:38:23;101624.68;;;18.08;58.75
55044;BME280;54902;50.420;18.854;2023-09-30T00:38:55;101627.61;;;18.07;58.75
55044;BME280;54902;50.420;18.854;2023-09-30T00:39:26;101631.07;;;18.08;58.75
55044;BME280;54902;50.420;18.854;2023-09-30T00:40:01;101623.82;;;18.08;58.77
55044;BME280;54902;50.420;18.854;2023-09-30T00:40:34;101623.82;;;18.08;58.76
55044;BME280;54902;50.420;18.854;2023-09-30T00:41:06;101625.70;;;18.07;58.78
55044;BME280;54902;50.420;18.854;2023-09-30T00:41:40;101625.53;;;18.08;58.78
55044;BME280;54902;50.420;18.854;2023-09-30T00:42:11;101625.85;;;18.06;58.77
55044;BME280;54902;50.420;18.854;2023-09-30T00:42:42;101617.56;;;18.06;58.79
55044;BME280;54902;50.420;18.854;2023-09-30T00:43:19;101618.42;;;18.06;58.79
55044;BME280;54902;50.420;18.854;2023-09-30T00:43:50;101625.85;;;18.06;58.79
55044;BME280;54902;50.420;18.854;2023-09-30T00:44:21;101617.73;;;18.04;58.80
55044;BME280;54902;50.420;18.854;2023-09-30T00:44:52;101623.09;;;18.06;58.80
55044;BME280;54902;50.420;18.854;2023-09-30T00:45:23;101625.00;;;18.05;58.78
55044;BME280;54902;50.420;18.854;2023-09-30T00:46:38;101630.54;;;18.05;58.82
55044;BME280;54902;50.420;18.854;2023-09-30T00:47:12;101624.12;;;18.05;58.85
55044;BME280;54902;50.420;18.854;2023-09-30T00:47:43;101625.00;;;18.05;58.85
55044;BME280;54902;50.420;18.854;2023-09-30T00:48:14;101622.39;;;18.04;58.86
55044;BME280;54902;50.420;18.854;2023-09-30T00:48:45;101627.93;;;18.04;58.82
55044;BME280;54902;50.420;18.854;2023-09-30T00:49:17;101618.74;;;18.03;58.82
55044;BME280;54902;50.420;18.854;2023-09-30T00:49:50;101619.76;;;18.02;58.84
55044;BME280;54902;50.420;18.854;2023-09-30T00:50:21;101619.76;;;18.02;58.83
55044;BME280;54902;50.420;18.854;2023-09-30T00:50:52;101618.91;;;18.02;58.85
55044;BME280;54902;50.420;18.854;2023-09-30T00:51:24;101631.71;;;18.03;58.85
55044;BME280;54902;50.420;18.854;2023-09-30T00:51:56;101620.65;;;18.03;58.85
55044;BME280;54902;50.420;18.854;2023-09-30T00:52:27;101621.66;;;18.02;58.85
55044;BME280;54902;50.420;18.854;2023-09-30T00:52:59;101616.13;;;18.02;58.85
55044;BME280;54902;50.420;18.854;2023-09-30T00:53:30;101618.91;;;18.02;58.88
55044;BME280;54902;50.420;18.854;2023-09-30T00:54:02;101611.63;;;18.01;58.89
55044;BME280;54902;50.420;18.854;2023-09-30T00:54:34;101624.44;;;18.02;58.89
55044;BME280;54902;50.420;18.854;2023-09-30T00:55:08;101618.04;;;18.01;58.89
55044;BME280;54902;50.420;18.854;2023-09-30T00:55:41;101622.68;;;18.01;58.87
55044;BME280;54902;50.420;18.854;2023-09-30T00:56:12;101617.15;;;18.01;58.85
55044;BME280;54902;50.420;18.854;2023-09-30T00:56:45;101616.29;;;18.00;58.89
55044;BME280;54902;50.420;18.854;2023-09-30T00:57:17;101616.29;;;18.00;58.90
55044;BME280;54902;50.420;18.854;2023-09-30T00:57:50;101612.63;;;18.00;58.93
55044;BME280;54902;50.420;18.854;2023-09-30T00:58:23;101620.94;;;18.00;58.96
55044;BME280;54902;50.420;18.854;2023-09-30T00:58:59;101612.63;;;18.00;58.96
55044;BME280;54902;50.420;18.854;2023-09-30T00:59:31;101609.87;;;18.00;58.95
55044;BME280;54902;50.420;18.854;2023-09-30T01:00:03;101614.55;;;17.99;58.94
55044;BME280;54902;50.420;18.854;2023-09-30T01:00:35;101612.63;;;18.00;58.95
55044;BME280;54902;50.420;18.854;2023-09-30T01:01:06;101604.34;;;18.00;58.92
55044;BME280;54902;50.420;18.854;2023-09-30T01:01:38;101609.02;;;17.99;58.91
55044;BME280;54902;50.420;18.854;2023-09-30T01:02:10;101612.63;;;18.00;58.94
55044;BME280;54902;50.420;18.854;2023-09-30T01:02:41;101615.40;;;18.00;58.96
55044;BME280;54902;50.420;18.854;2023-09-30T01:03:14;101611.77;;;17.99;58.94
55044;BME280;54902;50.420;18.854;2023-09-30T01:03:46;101613.69;;;17.99;58.96
55044;BME280;54902;50.420;18.854;2023-09-30T01:04:18;101613.69;;;17.99;58.95
55044;BME280;54902;50.420;18.854;2023-09-30T01:04:51;101619.23;;;17.99;59.00
55044;BME280;54902;50.420;18.854;2023-09-30T01:05:22;101608.16;;;17.99;58.97
55044;BME280;54902;50.420;18.854;2023-09-30T01:05:54;101617.30;;;17.99;58.98
55044;BME280;54902;50.420;18.854;2023-09-30T01:06:25;101615.40;;;18.00;58.98
55044;BME280;54902;50.420;18.854;2023-09-30T01:06:57;101613.69;;;17.99;58.96
55044;BME280;54902;50.420;18.854;2023-09-30T01:07:28;101615.40;;;18.00;59.00
55044;BME280;54902;50.420;18.854;2023-09-30T01:08:01;101613.69;;;17.99;58.99
55044;BME280;54902;50.420;18.854;2023-09-30T01:08:33;101613.69;;;17.99;59.04
55044;BME280;54902;50.420;18.854;2023-09-30T01:09:05;101613.69;;;17.99;59.07
55044;BME280;54902;50.420;18.854;2023-09-30T01:09:36;101612.80;;;17.98;59.03
55044;BME280;54902;50.420;18.854;2023-09-30T01:10:07;101615.56;;;17.98;59.02
55044;BME280;54902;50.420;18.854;2023-09-30T01:10:39;101613.69;;;17.99;58.96
55044;BME280;54902;50.420;18.854;2023-09-30T01:11:10;101617.30;;;17.99;59.07
55044;BME280;54902;50.420;18.854;2023-09-30T01:11:41;101608.16;;;17.99;59.03
55044;BME280;54902;50.420;18.854;2023-09-30T01:12:12;101612.80;;;17.98;59.03
55044;BME280;54902;50.420;18.854;2023-09-30T01:12:43;101613.69;;;17.99;59.03
55044;BME280;54902;50.420;18.854;2023-09-30T01:13:14;101608.60;;;17.94;59.06
55044;BME280;54902;50.420;18.854;2023-09-30T01:13:45;101613.69;;;17.99;59.03
55044;BME280;54902;50.420;18.854;2023-09-30T01:14:26;101623.86;;;17.98;59.04
55044;BME280;54902;50.420;18.854;2023-09-30T01:14:58;101609.17;;;17.98;59.03
55044;BME280;54902;50.420;18.854;2023-09-30T01:15:30;101611.93;;;17.98;59.03
55044;BME280;54902;50.420;18.854;2023-09-30T01:16:08;101611.93;;;17.98;59.03
55044;BME280;54902;50.420;18.854;2023-09-30T01:16:42;101611.93;;;17.98;59.07
55044;BME280;54902;50.420;18.854;2023-09-30T01:17:13;101615.56;;;17.98;59.07
55044;BME280;54902;50.420;18.854;2023-09-30T01:17:44;101614.71;;;17.98;59.06
55044;BME280;54902;50.420;18.854;2023-09-30T01:18:15;101615.56;;;17.98;59.07
55044;BME280;54902;50.420;18.854;2023-09-30T01:18:46;101614.71;;;17.98;59.10
55044;BME280;54902;50.420;18.854;2023-09-30T01:19:17;101573.65;;;17.76;59.09
55044;BME280;54902;50.420;18.854;2023-09-30T01:19:48;101617.47;;;17.98;59.07
55044;BME280;54902;50.420;18.854;2023-09-30T01:20:22;101608.32;;;17.97;59.09
55044;BME280;54902;50.420;18.854;2023-09-30T01:20:54;101623.00;;;17.98;59.10
55044;BME280;54902;50.420;18.854;2023-09-30T01:21:27;101619.38;;;17.97;59.10
55044;BME280;54902;50.420;18.854;2023-09-30T01:21:58;101623.00;;;17.98;59.08
55044;BME280;54902;50.420;18.854;2023-09-30T01:22:39;101626.78;;;17.97;59.14
55044;BME280;54902;50.420;18.854;2023-09-30T01:23:11;101626.78;;;17.97;59.12
55044;BME280;54902;50.420;18.854;2023-09-30T01:23:42;101621.25;;;17.97;59.13
55044;BME280;54902;50.420;18.854;2023-09-30T01:24:16;101611.08;;;17.97;59.15
55044;BME280;54902;50.420;18.854;2023-09-30T01:24:47;101626.78;;;17.97;59.14
55044;BME280;54902;50.420;18.854;2023-09-30T01:25:18;101625.92;;;17.96;59.16
55044;BME280;54902;50.420;18.854;2023-09-30T01:25:49;101632.31;;;17.97;59.15
55044;BME280;54902;50.420;18.854;2023-09-30T01:26:20;101623.32;;;17.95;59.18
55044;BME280;54902;50.420;18.854;2023-09-30T01:26:51;101623.16;;;17.96;59.14
55044;BME280;54902;50.420;18.854;2023-09-30T01:27:23;101632.31;;;17.97;59.16
55044;BME280;54902;50.420;18.854;2023-09-30T01:27:55;101629.71;;;17.95;59.16
55044;BME280;54902;50.420;18.854;2023-09-30T01:28:30;101625.04;;;17.96;59.18
55044;BME280;54902;50.420;18.854;2023-09-30T01:29:02;101630.56;;;17.96;59.17
55044;BME280;54902;50.420;18.854;2023-09-30T01:29:33;101628.86;;;17.95;59.18
55044;BME280;54902;50.420;18.854;2023-09-30T01:30:05;101628.86;;;17.95;59.19
55044;BME280;54902;50.420;18.854;2023-09-30T01:30:36;101631.62;;;17.95;59.18
55044;BME280;54902;50.420;18.854;2023-09-30T01:31:07;101629.71;;;17.95;59.15
55044;BME280;54902;50.420;18.854;2023-09-30T01:31:38;101629.71;;;17.95;59.13
55044;BME280;54902;50.420;18.854;2023-09-30T01:32:09;101634.38;;;17.95;59.20
55044;BME280;54902;50.420;18.854;2023-09-30T01:32:42;101628.86;;;17.95;59.20
55044;BME280;54902;50.420;18.854;2023-09-30T01:33:13;101639.91;;;17.95;59.20
55044;BME280;54902;50.420;18.854;2023-09-30T01:33:47;101634.38;;;17.95;59.21
55044;BME280;54902;50.420;18.854;2023-09-30T01:34:18;101623.92;;;17.89;59.21
55044;BME280;54902;50.420;18.854;2023-09-30T01:34:50;101639.02;;;17.94;59.19
55044;BME280;54902;50.420;18.854;2023-09-30T01:35:21;101633.49;;;17.94;59.22
55044;BME280;54902;50.420;18.854;2023-09-30T01:35:52;101637.15;;;17.95;59.21
55044;BME280;54902;50.420;18.854;2023-09-30T01:36:23;101638.16;;;17.94;59.27
55044;BME280;54902;50.420;18.854;2023-09-30T01:36:54;101632.63;;;17.94;59.33
55044;BME280;54902;50.420;18.854;2023-09-30T01:37:27;101638.16;;;17.94;59.32
55044;BME280;54902;50.420;18.854;2023-09-30T01:37:58;101641.09;;;17.92;59.29
55044;BME280;54902;50.420;18.854;2023-09-30T01:38:29;101642.84;;;17.93;59.27
55044;BME280;54902;50.420;18.854;2023-09-30T01:39:00;101634.55;;;17.93;59.27
55044;BME280;54902;50.420;18.854;2023-09-30T01:39:33;101634.67;;;17.92;59.27
55044;BME280;54902;50.420;18.854;2023-09-30T01:40:05;101633.65;;;17.93;59.27
55044;BME280;54902;50.420;18.854;2023-09-30T01:40:41;101639.19;;;17.93;59.31
55044;BME280;54902;50.420;18.854;2023-09-30T01:41:15;101640.20;;;17.92;59.28
55044;BME280;54902;50.420;18.854;2023-09-30T01:41:47;101634.55;;;17.93;59.29
55044;BME280;54902;50.420;18.854;2023-09-30T01:42:18;101637.43;;;17.92;59.34
55044;BME280;54902;50.420;18.854;2023-09-30T01:42:49;101636.41;;;17.93;59.30
55044;BME280;54902;50.420;18.854;2023-09-30T01:43:20;101631.77;;;17.93;59.35
55044;BME280;54902;50.420;18.854;2023-09-30T01:43:51;101630.88;;;17.93;59.37
55044;BME280;54902;50.420;18.854;2023-09-30T01:44:22;101633.65;;;17.93;59.38
55044;BME280;54902;50.420;18.854;2023-09-30T01:44:53;101639.34;;;17.91;59.34
55044;BME280;54902;50.420;18.854;2023-09-30T01:45:25;101634.67;;;17.92;59.33
55044;BME280;54902;50.420;18.854;2023-09-30T01:45:55;101632.80;;;17.92;59.42
55044;BME280;54902;50.420;18.854;2023-09-30T01:46:28;101632.95;;;17.91;59.48
55044;BME280;54902;50.420;18.854;2023-09-30T01:46:59;101634.67;;;17.92;59.45
55044;BME280;54902;50.420;18.854;2023-09-30T01:47:30;101634.67;;;17.92;59.44
55044;BME280;54902;50.420;18.854;2023-09-30T01:48:02;101631.91;;;17.92;59.43
55044;BME280;54902;50.420;18.854;2023-09-30T01:48:33;101638.49;;;17.91;59.39
55044;BME280;54902;50.420;18.854;2023-09-30T01:49:05;101628.28;;;17.91;59.44
55044;BME280;54902;50.420;18.854;2023-09-30T01:49:36;101631.05;;;17.91;59.47
55044;BME280;54902;50.420;18.854;2023-09-30T01:50:07;101631.21;;;17.90;59.50
55044;BME280;54902;50.420;18.854;2023-09-30T01:50:38;101632.95;;;17.91;59.51
55044;BME280;54902;50.420;18.854;2023-09-30T01:51:09;101630.19;;;17.91;59.51
55044;BME280;54902;50.420;18.854;2023-09-30T01:51:41;101634.67;;;17.92;59.48
55044;BME280;54902;50.420;18.854;2023-09-30T01:52:12;101633.97;;;17.90;59.48
55044;BME280;54902;50.420;18.854;2023-09-30T01:52:43;101627.55;;;17.89;59.49
55044;BME280;54902;50.420;18.854;2023-09-30T01:53:14;101631.21;;;17.90;59.51
55044;BME280;54902;50.420;18.854;2023-09-30T01:53:45;101636.73;;;17.90;59.49
55044;BME280;54902;50.420;18.854;2023-09-30T01:54:16;101629.45;;;17.89;59.51
55044;BME280;54902;50.420;18.854;2023-09-30T01:54:47;101629.45;;;17.89;59.51
55044;BME280;54902;50.420;18.854;2023-09-30T01:55:18;101632.22;;;17.89;59.60
55044;BME280;54902;50.420;18.854;2023-09-30T01:55:49;101629.45;;;17.89;59.53
55044;BME280;54902;50.420;18.854;2023-09-30T01:56:20;101634.98;;;17.89;59.54
55044;BME280;54902;50.420;18.854;2023-09-30T01:56:51;101623.06;;;17.88;59.55
55044;BME280;54902;50.420;18.854;2023-09-30T01:57:22;101634.13;;;17.88;59.60
55044;BME280;54902;50.420;18.854;2023-09-30T01:57:53;101629.45;;;17.89;59.64
55044;BME280;54902;50.420;18.854;2023-09-30T01:58:24;101632.22;;;17.89;59.57
55044;BME280;54902;50.420;18.854;2023-09-30T01:58:59;101639.66;;;17.88;59.60
55044;BME280;54902;50.420;18.854;2023-09-30T01:59:30;101628.60;;;17.88;59.56
55044;BME280;54902;50.420;18.854;2023-09-30T02:00:02;101624.94;;;17.88;59.60
55044;BME280;54902;50.420;18.854;2023-09-30T02:00:33;101628.76;;;17.87;59.62
55044;BME280;54902;50.420;18.854;2023-09-30T02:01:05;101630.47;;;17.88;59.61
55044;BME280;54902;50.420;18.854;2023-09-30T02:01:36;101636.01;;;17.88;59.57
55044;BME280;54902;50.420;18.854;2023-09-30T02:02:07;101632.38;;;17.87;59.51
55044;BME280;54902;50.420;18.854;2023-09-30T02:02:39;101634.28;;;17.87;59.60
55044;BME280;54902;50.420;18.854;2023-09-30T02:03:10;101636.16;;;17.86;59.59
55044;BME280;54902;50.420;18.854;2023-09-30T02:03:41;101637.05;;;17.87;59.65
55044;BME280;54902;50.420;18.854;2023-09-30T02:04:12;101636.16;;;17.86;59.68
55044;BME280;54902;50.420;18.854;2023-09-30T02:04:45;101629.78;;;17.86;59.62
55044;BME280;54902;50.420;18.854;2023-09-30T02:05:16;101635.30;;;17.86;59.63
55044;BME280;54902;50.420;18.854;2023-09-30T02:05:47;101635.30;;;17.86;59.64
55044;BME280;54902;50.420;18.854;2023-09-30T02:06:18;101632.70;;;17.84;59.64
55044;BME280;54902;50.420;18.854;2023-09-30T02:06:49;101628.88;;;17.85;59.63
55044;BME280;54902;50.420;18.854;2023-09-30T02:07:20;101634.41;;;17.85;59.67
55044;BME280;54902;50.420;18.854;2023-09-30T02:07:51;101641.84;;;17.85;59.66
55044;BME280;54902;50.420;18.854;2023-09-30T02:08:22;101629.93;;;17.84;59.65
55044;BME280;54902;50.420;18.854;2023-09-30T02:08:53;101630.79;;;17.85;59.69
55044;BME280;54902;50.420;18.854;2023-09-30T02:09:23;101630.09;;;17.83;59.72
55044;BME280;54902;50.420;18.854;2023-09-30T02:09:54;101629.03;;;17.84;59.77
55044;BME280;54902;50.420;18.854;2023-09-30T02:10:26;101632.86;;;17.83;59.79
55044;BME280;54902;50.420;18.854;2023-09-30T02:10:57;101635.62;;;17.83;59.81
55044;BME280;54902;50.420;18.854;2023-09-30T02:11:28;101631.80;;;17.84;59.81
55044;BME280;54902;50.420;18.854;2023-09-30T02:11:59;101629.20;;;17.82;59.81
55044;BME280;54902;50.420;18.854;2023-09-30T02:12:31;101630.09;;;17.83;59.86
55044;BME280;54902;50.420;18.854;2023-09-30T02:13:02;101629.36;;;17.81;59.84
55044;BME280;54902;50.420;18.854;2023-09-30T02:13:36;101629.36;;;17.81;59.82
55044;BME280;54902;50.420;18.854;2023-09-30T02:14:07;101632.98;;;17.81;59.78
55044;BME280;54902;50.420;18.854;2023-09-30T02:14:38;101625.74;;;17.80;59.75
55044;BME280;54902;50.420;18.854;2023-09-30T02:15:09;101623.13;;;17.79;59.72
55044;BME280;54902;50.420;18.854;2023-09-30T02:15:42;101628.66;;;17.79;59.77
55044;BME280;54902;50.420;18.854;2023-09-30T02:16:13;101629.52;;;17.79;59.74
55044;BME280;54902;50.420;18.854;2023-09-30T02:16:45;101626.91;;;17.78;59.78
55044;BME280;54902;50.420;18.854;2023-09-30T02:17:16;101632.44;;;17.78;59.76
55044;BME280;54902;50.420;18.854;2023-09-30T02:17:47;101632.44;;;17.78;59.87
55044;BME280;54902;50.420;18.854;2023-09-30T02:18:19;101628.78;;;17.77;59.91
55044;BME280;54902;50.420;18.854;2023-09-30T02:18:50;101629.83;;;17.76;59.84
55044;BME280;54902;50.420;18.854;2023-09-30T02:19:22;101623.41;;;17.76;59.86
55044;BME280;54902;50.420;18.854;2023-09-30T02:19:53;101631.71;;;17.76;59.87
55044;BME280;54902;50.420;18.854;2023-09-30T02:20:25;101634.47;;;17.76;59.96
55044;BME280;54902;50.420;18.854;2023-09-30T02:21:00;101628.94;;;17.76;59.91
55044;BME280;54902;50.420;18.854;2023-09-30T02:21:31;101632.72;;;17.75;59.88
55044;BME280;54902;50.420;18.854;2023-09-30T02:22:02;101635.48;;;17.75;59.88
55044;BME280;54902;50.420;18.854;2023-09-30T02:22:33;101626.49;;;17.73;59.83
55044;BME280;54902;50.420;18.854;2023-09-30T02:23:04;101633.77;;;17.74;59.91
55044;BME280;54902;50.420;18.854;2023-09-30T02:23:36;101629.10;;;17.74;59.97
55044;BME280;54902;50.420;18.854;2023-09-30T02:24:07;101636.70;;;17.72;59.96
55044;BME280;54902;50.420;18.854;2023-09-30T02:24:38;101636.70;;;17.72;59.96
55044;BME280;54902;50.420;18.854;2023-09-30T02:25:11;101631.29;;;17.71;59.93
55044;BME280;54902;50.420;18.854;2023-09-30T02:25:43;101635.95;;;17.70;59.93
55044;BME280;54902;50.420;18.854;2023-09-30T02:26:14;101636.81;;;17.71;59.94
55044;BME280;54902;50.420;18.854;2023-09-30T02:26:45;101637.71;;;17.71;59.92
55044;BME280;54902;50.420;18.854;2023-09-30T02:27:16;101636.81;;;17.71;60.01
55044;BME280;54902;50.420;18.854;2023-09-30T02:27:49;101630.43;;;17.70;60.05
55044;BME280;54902;50.420;18.854;2023-09-30T02:28:20;101643.40;;;17.70;60.01
55044;BME280;54902;50.420;18.854;2023-09-30T02:28:52;101637.86;;;17.70;60.04
55044;BME280;54902;50.420;18.854;2023-09-30T02:29:24;101637.13;;;17.68;59.98
55044;BME280;54902;50.420;18.854;2023-09-30T02:29:55;101644.41;;;17.69;59.95
55044;BME280;54902;50.420;18.854;2023-09-30T02:30:27;101638.88;;;17.69;59.97
55044;BME280;54902;50.420;18.854;2023-09-30T02:30:59;101640.79;;;17.68;59.98
55044;BME280;54902;50.420;18.854;2023-09-30T02:31:31;101641.64;;;17.69;59.97
55044;BME280;54902;50.420;18.854;2023-09-30T02:32:02;101641.80;;;17.67;60.06
55044;BME280;54902;50.420;18.854;2023-09-30T02:32:33;101647.34;;;17.67;60.08
55044;BME280;54902;50.420;18.854;2023-09-30T02:33:04;101638.16;;;17.67;60.18
55044;BME280;54902;50.420;18.854;2023-09-30T02:33:37;101632.62;;;17.67;60.13
55044;BME280;54902;50.420;18.854;2023-09-30T02:34:09;101633.66;;;17.66;60.08
55044;BME280;54902;50.420;18.854;2023-09-30T02:34:40;101626.39;;;17.65;60.10
55044;BME280;54902;50.420;18.854;2023-09-30T02:35:13;101631.92;;;17.65;60.18
55044;BME280;54902;50.420;18.854;2023-09-30T02:35:45;101637.45;;;17.65;60.22
55044;BME280;54902;50.420;18.854;2023-09-30T02:36:17;101634.68;;;17.65;60.23
55044;BME280;54902;50.420;18.854;2023-09-30T02:36:48;101643.13;;;17.63;60.21
55044;BME280;54902;50.420;18.854;2023-09-30T02:37:19;101647.77;;;17.63;60.12
55044;BME280;54902;50.420;18.854;2023-09-30T02:37:50;101641.38;;;17.62;60.11
55044;BME280;54902;50.420;18.854;2023-09-30T02:38:22;101645.89;;;17.63;60.09
55044;BME280;54902;50.420;18.854;2023-09-30T02:38:53;101646.05;;;17.62;60.09
55044;BME280;54902;50.420;18.854;2023-09-30T02:39:24;101652.60;;;17.61;60.12
55044;BME280;54902;50.420;18.854;2023-09-30T02:39:57;101644.30;;;17.61;60.12
55044;BME280;54902;50.420;18.854;2023-09-30T02:40:28;101637.18;;;17.58;60.11
55044;BME280;54902;50.420;18.854;2023-09-30T02:40:59;101647.07;;;17.61;60.16
55044;BME280;54902;50.420;18.854;2023-09-30T02:41:29;101645.32;;;17.60;60.16
55044;BME280;54902;50.420;18.854;2023-09-30T02:42:00;101649.10;;;17.59;60.16
55044;BME280;54902;50.420;18.854;2023-09-30T02:42:32;101643.57;;;17.59;60.18
55044;BME280;54902;50.420;18.854;2023-09-30T02:43:03;101643.57;;;17.59;60.17
55044;BME280;54902;50.420;18.854;2023-09-30T02:43:34;101646.49;;;17.57;60.17
55044;BME280;54902;50.420;18.854;2023-09-30T02:44:05;101645.63;;;17.57;60.20